createdAt,value
2019-01-24T00:00:43.166Z,-3.70
2019-01-24T00:03:12.023Z,-3.60
2019-01-24T00:05:40.793Z,-3.60
2019-01-24T00:08:09.570Z,-3.60
2019-01-24T00:10:38.430Z,-3.60
2019-01-24T00:13:07.294Z,-3.60
2019-01-24T00:15:36.083Z,-3.70
2019-01-24T00:18:05.046Z,-3.60
2019-01-24T00:20:33.893Z,-3.60
2019-01-24T00:23:02.713Z,-3.60
2019-01-24T00:25:31.573Z,-3.60
2019-01-24T00:28:00.717Z,-3.60
2019-01-24T00:30:29.543Z,-3.60
2019-01-24T00:32:58.491Z,-3.60
2019-01-24T00:35:27.359Z,-3.60
2019-01-24T00:37:56.222Z,-3.60
2019-01-24T00:40:25.065Z,-3.70
2019-01-24T00:42:53.861Z,-3.70
2019-01-24T00:45:22.764Z,-3.70
2019-01-24T00:47:51.629Z,-3.70
2019-01-24T00:50:20.981Z,-3.70
2019-01-24T00:52:49.848Z,-3.70
2019-01-24T00:55:18.769Z,-3.70
2019-01-24T00:57:47.702Z,-3.80
2019-01-24T01:00:20.026Z,-3.80
2019-01-24T01:02:49.064Z,-3.80
2019-01-24T01:05:18.079Z,-3.80
2019-01-24T01:07:46.929Z,-3.80
2019-01-24T01:10:15.966Z,-3.80
2019-01-24T01:12:44.931Z,-3.80
2019-01-24T01:15:15.718Z,-3.80
2019-01-24T01:17:45.122Z,-3.80
2019-01-24T01:20:18.466Z,-3.80
2019-01-24T01:22:47.590Z,-3.90
2019-01-24T01:25:16.555Z,-3.90
2019-01-24T01:27:46.165Z,-3.90
2019-01-24T01:30:17.437Z,-3.90
2019-01-24T01:32:46.618Z,-3.90
2019-01-24T01:35:15.769Z,-3.80
2019-01-24T01:37:44.619Z,-3.80
2019-01-24T01:40:14.201Z,-3.80
2019-01-24T01:42:43.166Z,-3.80
2019-01-24T01:45:14.701Z,-3.80
2019-01-24T01:47:43.569Z,-3.80
2019-01-24T01:50:14.973Z,-3.80
2019-01-24T01:52:43.862Z,-3.90
2019-01-24T01:55:13.077Z,-3.90
2019-01-24T01:57:42.509Z,-3.90
2019-01-24T02:00:15.230Z,-3.90
2019-01-24T02:02:44.165Z,-3.90
2019-01-24T02:05:13.336Z,-3.80
2019-01-24T02:07:42.450Z,-3.80
2019-01-24T02:10:13.972Z,-3.80
2019-01-24T02:12:42.912Z,-3.80
2019-01-24T02:15:12.248Z,-3.90
2019-01-24T02:17:41.061Z,-3.80
2019-01-24T02:20:12.969Z,-3.90
2019-01-24T02:22:41.904Z,-3.90
2019-01-24T02:25:10.882Z,-4.00
2019-01-24T02:27:39.813Z,-4.00
2019-01-24T02:30:11.762Z,-4.00
2019-01-24T02:32:40.869Z,-3.90
2019-01-24T02:35:10.009Z,-3.90
2019-01-24T02:37:38.881Z,-3.90
2019-01-24T02:40:08.406Z,-4.00
2019-01-24T02:42:37.337Z,-4.00
2019-01-24T02:45:07.609Z,-4.00
2019-01-24T02:47:36.490Z,-4.00
2019-01-24T02:50:07.557Z,-4.00
2019-01-24T02:52:36.662Z,-4.00
2019-01-24T02:55:07.463Z,-4.00
2019-01-24T02:57:36.248Z,-3.90
2019-01-24T03:00:06.849Z,-3.90
2019-01-24T03:02:35.634Z,-4.00
2019-01-24T03:05:05.997Z,-4.00
2019-01-24T03:07:34.778Z,-4.00
2019-01-24T03:10:03.944Z,-4.00
2019-01-24T03:12:32.811Z,-4.10
2019-01-24T03:15:01.988Z,-4.10
2019-01-24T03:17:30.879Z,-4.10
2019-01-24T03:19:59.656Z,-4.00
2019-01-24T03:22:28.500Z,-4.00
2019-01-24T03:24:57.353Z,-4.00
2019-01-24T03:27:26.128Z,-4.00
2019-01-24T03:29:54.992Z,-4.00
2019-01-24T03:32:23.759Z,-4.00
2019-01-24T03:34:52.534Z,-3.90
2019-01-24T03:37:21.560Z,-3.90
2019-01-24T03:39:50.343Z,-3.90
2019-01-24T03:42:19.185Z,-3.90
2019-01-24T03:44:48.059Z,-3.90
2019-01-24T03:47:16.916Z,-4.00
2019-01-24T03:49:45.950Z,-4.00
2019-01-24T03:52:15.048Z,-4.00
2019-01-24T03:54:43.838Z,-4.00
2019-01-24T03:57:13.029Z,-4.00
2019-01-24T03:59:41.995Z,-4.00
2019-01-24T04:02:11.098Z,-4.00
2019-01-24T04:04:39.957Z,-4.00
2019-01-24T04:07:08.734Z,-4.00
2019-01-24T04:09:37.540Z,-4.00
2019-01-24T04:12:08.372Z,-4.00
2019-01-24T04:14:36.956Z,-4.00
2019-01-24T04:17:06.060Z,-4.00
2019-01-24T04:19:34.858Z,-4.10
2019-01-24T04:22:03.718Z,-4.10
2019-01-24T04:24:32.751Z,-4.10
2019-01-24T04:27:01.514Z,-4.10
2019-01-24T04:29:30.300Z,-4.10
2019-01-24T04:31:59.576Z,-4.00
2019-01-24T04:34:28.336Z,-4.00
2019-01-24T04:36:57.179Z,-4.00
2019-01-24T04:39:25.952Z,-4.00
2019-01-24T04:41:54.710Z,-4.00
2019-01-24T04:44:23.481Z,-4.00
2019-01-24T04:46:52.344Z,-4.10
2019-01-24T04:49:21.134Z,-4.10
2019-01-24T04:51:50.070Z,-4.10
2019-01-24T04:54:19.262Z,-4.10
2019-01-24T04:56:48.136Z,-4.10
2019-01-24T04:59:16.981Z,-4.10
2019-01-24T05:01:46.306Z,-4.10
2019-01-24T05:04:15.264Z,-4.10
2019-01-24T05:06:44.039Z,-4.10
2019-01-24T05:09:13.496Z,-4.10
2019-01-24T05:11:42.469Z,-4.10
2019-01-24T05:14:11.989Z,-4.20
2019-01-24T05:16:41.299Z,-4.10
2019-01-24T05:19:10.103Z,-4.10
2019-01-24T05:21:39.265Z,-4.10
2019-01-24T05:24:08.218Z,-4.20
2019-01-24T05:26:37.048Z,-4.20
2019-01-24T05:29:05.855Z,-4.20
2019-01-24T05:31:34.743Z,-4.20
2019-01-24T05:34:03.602Z,-4.20
2019-01-24T05:36:32.505Z,-4.10
2019-01-24T05:39:01.868Z,-4.20
2019-01-24T05:41:30.618Z,-4.20
2019-01-24T05:43:59.394Z,-4.30
2019-01-24T05:46:28.170Z,-4.30
2019-01-24T05:48:57.029Z,-4.30
2019-01-24T05:51:25.807Z,-4.40
2019-01-24T05:53:55.105Z,-4.40
2019-01-24T05:56:23.910Z,-4.40
2019-01-24T05:58:52.944Z,-4.40
2019-01-24T06:01:22.349Z,-4.40
2019-01-24T06:03:51.263Z,-4.40
2019-01-24T06:06:20.365Z,-4.30
2019-01-24T06:08:49.427Z,-4.30
2019-01-24T06:11:18.451Z,-4.30
2019-01-24T06:13:47.229Z,-4.30
2019-01-24T06:16:16.105Z,-4.30
2019-01-24T06:18:44.994Z,-4.30
2019-01-24T06:21:13.935Z,-4.40
2019-01-24T06:23:42.717Z,-4.40
2019-01-24T06:26:11.503Z,-4.40
2019-01-24T06:28:40.260Z,-4.40
2019-01-24T06:31:09.364Z,-4.50
2019-01-24T06:33:38.377Z,-4.40
2019-01-24T06:36:07.226Z,-4.40
2019-01-24T06:38:36.240Z,-4.40
2019-01-24T06:41:05.329Z,-4.40
2019-01-24T06:43:34.117Z,-4.40
2019-01-24T06:46:03.138Z,-4.40
2019-01-24T06:48:31.914Z,-4.40
2019-01-24T06:51:00.974Z,-4.40
2019-01-24T06:53:29.738Z,-4.40
2019-01-24T06:55:58.515Z,-4.50
2019-01-24T06:58:27.282Z,-4.50
2019-01-24T07:00:57.344Z,-4.50
2019-01-24T07:03:26.170Z,-4.50
2019-01-24T07:05:55.510Z,-4.50
2019-01-24T07:08:24.629Z,-4.50
2019-01-24T07:10:53.396Z,-4.50
2019-01-24T07:13:22.269Z,-4.60
2019-01-24T07:15:51.329Z,-4.60
2019-01-24T07:18:20.202Z,-4.60
2019-01-24T07:20:49.393Z,-4.60
2019-01-24T07:23:18.275Z,-4.60
2019-01-24T07:25:47.177Z,-4.60
2019-01-24T07:28:16.049Z,-4.60
2019-01-24T07:30:45.194Z,-4.60
2019-01-24T07:33:14.037Z,-4.60
2019-01-24T07:35:42.918Z,-4.60
2019-01-24T07:38:11.731Z,-4.60
2019-01-24T07:40:40.518Z,-4.50
2019-01-24T07:43:09.622Z,-4.50
2019-01-24T07:45:40.166Z,-4.50
2019-01-24T07:48:09.139Z,-4.50
2019-01-24T07:50:38.002Z,-4.50
2019-01-24T07:53:07.814Z,-4.50
2019-01-24T07:55:36.947Z,-4.40
2019-01-24T07:58:06.689Z,-4.40
2019-01-24T08:00:35.658Z,-4.40
2019-01-24T08:03:05.056Z,-4.40
2019-01-24T08:05:34.142Z,-4.30
2019-01-24T08:08:03.066Z,-4.40
2019-01-24T08:10:32.027Z,-4.30
2019-01-24T08:13:00.873Z,-4.30
2019-01-24T08:15:29.906Z,-4.30
2019-01-24T08:17:59.363Z,-4.20
2019-01-24T08:20:28.478Z,-4.20
2019-01-24T08:22:57.458Z,-4.20
2019-01-24T08:25:26.416Z,-4.20
2019-01-24T08:27:55.299Z,-4.20
2019-01-24T08:30:26.276Z,-4.20
2019-01-24T08:32:55.185Z,-4.20
2019-01-24T08:35:24.158Z,-4.10
2019-01-24T08:37:53.084Z,-4.10
2019-01-24T08:40:22.131Z,-4.10
2019-01-24T08:42:51.085Z,-4.10
2019-01-24T08:45:20.065Z,-4.00
2019-01-24T08:47:48.919Z,-4.00
2019-01-24T08:50:19.372Z,-4.00
2019-01-24T08:52:48.526Z,-4.00
2019-01-24T08:55:20.166Z,-4.00
2019-01-24T08:57:48.991Z,-4.00
2019-01-24T09:00:18.961Z,-4.00
2019-01-24T09:02:48.136Z,-4.00
2019-01-24T09:05:17.254Z,-3.90
2019-01-24T09:07:46.194Z,-3.90
2019-01-24T09:10:20.602Z,-3.90
2019-01-24T09:12:49.524Z,-3.90
2019-01-24T09:15:18.376Z,-3.90
2019-01-24T09:17:47.483Z,-3.90
2019-01-24T09:20:16.745Z,-3.90
2019-01-24T09:22:45.666Z,-3.90
2019-01-24T09:25:14.694Z,-3.80
2019-01-24T09:27:43.636Z,-3.80
2019-01-24T09:30:21.324Z,-3.80
2019-01-24T09:32:50.160Z,-3.80
2019-01-24T09:35:19.094Z,-3.80
2019-01-24T09:37:48.185Z,-3.80
2019-01-24T09:40:18.017Z,-3.80
2019-01-24T09:42:46.871Z,-3.70
2019-01-24T09:45:26.344Z,-3.70
2019-01-24T09:47:57.211Z,-3.60
2019-01-24T09:50:26.398Z,-3.60
2019-01-24T09:52:55.227Z,-3.50
2019-01-24T09:55:24.160Z,-3.40
2019-01-24T09:57:52.998Z,-3.40
2019-01-24T10:00:29.780Z,-3.30
2019-01-24T10:02:58.636Z,-3.30
2019-01-24T10:05:27.592Z,-3.40
2019-01-24T10:07:56.509Z,-3.50
2019-01-24T10:10:25.581Z,-3.50
2019-01-24T10:12:55.247Z,-3.50
2019-01-24T10:15:24.398Z,-3.50
2019-01-24T10:17:53.253Z,-3.60
2019-01-24T10:20:23.262Z,-3.50
2019-01-24T10:22:52.154Z,-3.60
2019-01-24T10:25:40.245Z,-3.70
2019-01-24T10:28:09.773Z,-3.70
2019-01-24T10:30:42.812Z,-3.60
2019-01-24T10:33:09.394Z,-3.50
2019-01-24T10:35:38.322Z,-3.40
2019-01-24T10:38:07.727Z,-3.30
2019-01-24T10:40:36.674Z,-3.40
2019-01-24T10:43:05.986Z,-3.30
2019-01-24T10:45:34.843Z,-3.30
2019-01-24T10:48:03.777Z,-3.20
2019-01-24T10:50:32.575Z,-3.10
2019-01-24T10:53:01.496Z,-3.10
2019-01-24T10:55:30.654Z,-2.90
2019-01-24T10:58:01.549Z,-2.80
2019-01-24T11:00:41.254Z,-2.70
2019-01-24T11:03:12.517Z,-2.60
2019-01-24T11:05:41.489Z,-2.50
2019-01-24T11:08:10.354Z,-2.50
2019-01-24T11:10:39.461Z,-2.50
2019-01-24T11:13:08.382Z,-2.50
2019-01-24T11:15:37.578Z,-2.50
2019-01-24T11:18:07.464Z,-2.50
2019-01-24T11:20:36.253Z,-2.40
2019-01-24T11:23:05.488Z,-2.40
2019-01-24T11:25:34.355Z,-2.30
2019-01-24T11:28:03.197Z,-2.20
2019-01-24T11:30:32.443Z,-2.10
2019-01-24T11:33:01.717Z,-2.10
2019-01-24T11:35:32.750Z,-2.10
2019-01-24T11:38:01.521Z,-2.10
2019-01-24T11:40:30.488Z,-2.20
2019-01-24T11:42:59.489Z,-2.10
2019-01-24T11:45:33.797Z,-2.10
2019-01-24T11:48:02.861Z,-2.10
2019-01-24T11:50:31.665Z,-2.10
2019-01-24T11:53:00.517Z,-1.90
2019-01-24T11:55:29.389Z,-1.90
2019-01-24T11:57:58.245Z,-1.80
2019-01-24T12:00:38.379Z,-1.80
2019-01-24T12:03:07.382Z,-1.80
2019-01-24T12:05:36.286Z,-1.80
2019-01-24T12:08:06.030Z,-1.90
2019-01-24T12:10:34.959Z,-1.90
2019-01-24T12:13:03.794Z,-1.90
2019-01-24T12:15:33.077Z,-1.90
2019-01-24T12:18:01.921Z,-1.90
2019-01-24T12:20:30.782Z,-2.00
2019-01-24T12:22:59.698Z,-2.20
2019-01-24T12:25:28.494Z,-2.10
2019-01-24T12:27:57.262Z,-2.10
2019-01-24T12:30:28.105Z,-2.10
2019-01-24T12:32:57.450Z,-2.10
2019-01-24T12:35:26.678Z,-2.20
2019-01-24T12:37:55.607Z,-2.20
2019-01-24T12:40:24.470Z,-2.30
2019-01-24T12:42:53.250Z,-2.30
2019-01-24T12:45:27.250Z,-2.40
2019-01-24T12:47:56.414Z,-2.50
2019-01-24T12:50:25.366Z,-2.50
2019-01-24T12:52:54.330Z,-2.50
2019-01-24T12:55:23.262Z,-2.50
2019-01-24T12:57:52.179Z,-2.50
2019-01-24T13:00:29.719Z,-2.60
2019-01-24T13:02:58.544Z,-2.70
2019-01-24T13:05:27.588Z,-2.70
2019-01-24T13:07:56.601Z,-2.80
2019-01-24T13:10:26.547Z,-2.80
2019-01-24T13:12:55.528Z,-2.70
2019-01-24T13:15:26.492Z,-2.70
2019-01-24T13:17:55.424Z,-2.70
2019-01-24T13:20:24.814Z,-2.80
2019-01-24T13:22:53.799Z,-2.90
2019-01-24T13:25:25.035Z,-2.90
2019-01-24T13:27:53.908Z,-2.90
2019-01-24T13:30:24.559Z,-2.90
2019-01-24T13:32:53.349Z,-2.80
2019-01-24T13:35:22.557Z,-3.00
2019-01-24T13:37:51.486Z,-3.00
2019-01-24T13:40:22.342Z,-3.00
2019-01-24T13:42:51.202Z,-3.00
2019-01-24T13:45:22.345Z,-3.00
2019-01-24T13:47:51.513Z,-2.90
2019-01-24T13:50:20.550Z,-2.90
2019-01-24T13:52:49.410Z,-2.90
2019-01-24T13:55:18.326Z,-2.90
2019-01-24T13:57:47.262Z,-2.90
2019-01-24T14:00:24.834Z,-3.00
2019-01-24T14:02:57.625Z,-3.00
2019-01-24T14:05:26.666Z,-3.00
2019-01-24T14:07:55.698Z,-3.00
2019-01-24T14:10:24.886Z,-3.00
2019-01-24T14:12:53.927Z,-2.90
2019-01-24T14:15:22.765Z,-2.90
2019-01-24T14:17:51.567Z,-2.90
2019-01-24T14:20:20.496Z,-2.90
2019-01-24T14:22:49.441Z,-3.00
2019-01-24T14:25:18.484Z,-3.00
2019-01-24T14:27:47.425Z,-2.80
2019-01-24T14:30:23.937Z,-2.80
2019-01-24T14:32:53.268Z,-2.80
2019-01-24T14:35:22.126Z,-2.80
2019-01-24T14:37:51.172Z,-2.80
2019-01-24T14:40:20.186Z,-2.80
2019-01-24T14:42:48.982Z,-2.80
2019-01-24T14:45:20.121Z,-2.80
2019-01-24T14:47:49.055Z,-2.80
2019-01-24T14:50:22.397Z,-2.90
2019-01-24T14:52:51.450Z,-2.90
2019-01-24T14:55:20.579Z,-3.00
2019-01-24T14:57:49.708Z,-3.10
2019-01-24T15:00:26.839Z,-3.20
2019-01-24T15:02:55.730Z,-3.20
2019-01-24T15:05:24.872Z,-3.20
2019-01-24T15:07:53.794Z,-3.30
2019-01-24T15:10:22.986Z,-3.30
2019-01-24T15:12:52.988Z,-3.20
2019-01-24T15:15:22.458Z,-3.20
2019-01-24T15:17:51.414Z,-3.30
2019-01-24T15:20:21.970Z,-3.30
2019-01-24T15:22:50.853Z,-3.30
2019-01-24T15:25:19.773Z,-3.30
2019-01-24T15:27:48.744Z,-3.40
2019-01-24T15:30:20.227Z,-3.40
2019-01-24T15:32:49.114Z,-3.50
2019-01-24T15:35:18.026Z,-3.50
2019-01-24T15:37:46.894Z,-3.70
2019-01-24T15:40:18.518Z,-3.80
2019-01-24T15:42:47.454Z,-3.80
2019-01-24T15:45:16.729Z,-3.80
2019-01-24T15:47:45.679Z,-3.90
2019-01-24T15:50:15.964Z,-4.00
2019-01-24T15:52:44.874Z,-4.00
2019-01-24T15:55:14.142Z,-4.00
2019-01-24T15:57:43.068Z,-4.00
2019-01-24T16:00:16.130Z,-4.10
2019-01-24T16:02:45.088Z,-4.10
2019-01-24T16:05:14.050Z,-4.10
2019-01-24T16:07:42.891Z,-4.00
2019-01-24T16:10:13.062Z,-4.00
2019-01-24T16:12:41.901Z,-4.00
2019-01-24T16:15:13.900Z,-4.00
2019-01-24T16:17:42.748Z,-4.00
2019-01-24T16:20:14.985Z,-4.00
2019-01-24T16:22:43.826Z,-4.00
2019-01-24T16:25:13.505Z,-4.00
2019-01-24T16:27:42.438Z,-4.10
2019-01-24T16:30:15.716Z,-4.10
2019-01-24T16:32:45.073Z,-4.10
2019-01-24T16:35:14.675Z,-4.10
2019-01-24T16:37:43.466Z,-4.10
2019-01-24T16:40:12.875Z,-4.10
2019-01-24T16:42:41.653Z,-4.00
2019-01-24T16:45:13.767Z,-4.00
2019-01-24T16:47:42.694Z,-4.10
2019-01-24T16:50:12.256Z,-4.10
2019-01-24T16:52:41.202Z,-4.10
2019-01-24T16:55:13.067Z,-4.10
2019-01-24T16:57:42.206Z,-4.20
2019-01-24T17:00:23.694Z,-4.20
2019-01-24T17:02:52.480Z,-4.20
2019-01-24T17:05:21.381Z,-4.20
2019-01-24T17:07:50.270Z,-4.20
2019-01-24T17:10:20.044Z,-4.20
2019-01-24T17:12:48.961Z,-4.20
2019-01-24T17:15:18.106Z,-4.20
2019-01-24T17:17:47.050Z,-4.20
2019-01-24T17:20:21.409Z,-4.20
2019-01-24T17:22:50.977Z,-4.20
2019-01-24T17:25:20.740Z,-4.30
2019-01-24T17:27:49.740Z,-4.30
2019-01-24T17:30:21.219Z,-4.20
2019-01-24T17:32:50.749Z,-4.20
2019-01-24T17:35:19.890Z,-4.20
2019-01-24T17:37:48.977Z,-4.20
2019-01-24T17:40:25.753Z,-4.20
2019-01-24T17:42:54.777Z,-4.20
2019-01-24T17:45:23.700Z,-4.10
2019-01-24T17:47:52.769Z,-4.10
2019-01-24T17:50:21.782Z,-4.20
2019-01-24T17:52:50.937Z,-4.20
2019-01-24T17:55:25.580Z,-4.20
2019-01-24T17:57:54.504Z,-4.10
2019-01-24T18:00:24.224Z,-4.10
2019-01-24T18:02:53.311Z,-4.10
2019-01-24T18:05:22.428Z,-4.10
2019-01-24T18:07:51.814Z,-4.10
2019-01-24T18:10:24.387Z,-4.10
2019-01-24T18:12:53.359Z,-4.10
2019-01-24T18:15:24.503Z,-4.10
2019-01-24T18:17:53.679Z,-4.10
2019-01-24T18:20:24.387Z,-4.10
2019-01-24T18:22:53.268Z,-4.10
2019-01-24T18:25:22.106Z,-4.10
2019-01-24T18:27:51.035Z,-4.00
2019-01-24T18:30:22.213Z,-4.00
2019-01-24T18:32:51.269Z,-4.00
2019-01-24T18:35:20.281Z,-4.10
2019-01-24T18:37:49.237Z,-4.10
2019-01-24T18:40:20.196Z,-4.10
2019-01-24T18:42:49.253Z,-4.10
2019-01-24T18:45:24.028Z,-4.10
2019-01-24T18:47:52.954Z,-4.10
2019-01-24T18:50:22.193Z,-4.10
2019-01-24T18:52:51.134Z,-4.10
2019-01-24T18:55:19.982Z,-4.10
2019-01-24T18:57:49.016Z,-4.10
2019-01-24T19:00:23.771Z,-4.00
2019-01-24T19:02:52.620Z,-4.00
2019-01-24T19:05:21.381Z,-4.00
2019-01-24T19:07:50.181Z,-4.00
2019-01-24T19:10:19.170Z,-4.00
2019-01-24T19:12:48.042Z,-3.90
2019-01-24T19:15:17.892Z,-3.90
2019-01-24T19:17:47.575Z,-3.90
2019-01-24T19:20:16.640Z,-3.90
2019-01-24T19:22:45.637Z,-3.90
2019-01-24T19:25:14.573Z,-3.80
2019-01-24T19:27:43.553Z,-3.80
2019-01-24T19:30:16.541Z,-3.80
2019-01-24T19:32:45.466Z,-3.90
2019-01-24T19:35:14.369Z,-3.90
2019-01-24T19:37:43.261Z,-3.90
2019-01-24T19:40:13.173Z,-3.90
2019-01-24T19:42:42.298Z,-3.90
2019-01-24T19:45:13.792Z,-3.90
2019-01-24T19:47:42.736Z,-3.90
2019-01-24T19:50:13.517Z,-3.90
2019-01-24T19:52:42.381Z,-3.90
2019-01-24T19:55:11.394Z,-3.90
2019-01-24T19:57:40.418Z,-3.90
2019-01-24T20:00:29.121Z,-3.90
2019-01-24T20:02:58.473Z,-3.90
2019-01-24T20:05:27.733Z,-3.90
2019-01-24T20:07:56.806Z,-3.90
2019-01-24T20:10:27.329Z,-3.90
2019-01-24T20:12:56.266Z,-3.90
2019-01-24T20:15:26.608Z,-3.90
2019-01-24T20:17:56.045Z,-4.00
2019-01-24T20:20:25.046Z,-4.00
2019-01-24T20:22:54.402Z,-3.90
2019-01-24T20:25:25.337Z,-4.00
2019-01-24T20:27:54.270Z,-4.00
2019-01-24T20:30:24.974Z,-4.10
2019-01-24T20:32:53.989Z,-4.10
2019-01-24T20:35:31.093Z,-4.10
2019-01-24T20:37:59.942Z,-4.20
2019-01-24T20:40:28.856Z,-4.20
2019-01-24T20:42:57.797Z,-4.20
2019-01-24T20:45:26.637Z,-4.20
2019-01-24T20:47:55.600Z,-4.20
2019-01-24T20:50:24.379Z,-4.30
2019-01-24T20:52:53.296Z,-4.30
2019-01-24T20:55:22.054Z,-4.30
2019-01-24T20:57:51.039Z,-4.20
2019-01-24T21:00:21.348Z,-4.20
2019-01-24T21:02:50.389Z,-4.20
2019-01-24T21:05:20.586Z,-4.30
2019-01-24T21:07:49.583Z,-4.20
2019-01-24T21:10:20.565Z,-4.30
2019-01-24T21:12:49.477Z,-4.20
2019-01-24T21:15:18.678Z,-4.20
2019-01-24T21:17:48.257Z,-4.20
2019-01-24T21:20:19.273Z,-4.20
2019-01-24T21:22:48.217Z,-4.20
2019-01-24T21:25:17.952Z,-4.20
2019-01-24T21:27:46.811Z,-4.20
2019-01-24T21:30:18.585Z,-4.30
2019-01-24T21:32:47.489Z,-4.20
2019-01-24T21:35:16.611Z,-4.20
2019-01-24T21:37:45.391Z,-4.20
2019-01-24T21:40:15.898Z,-4.20
2019-01-24T21:42:44.726Z,-4.20
2019-01-24T21:45:16.525Z,-4.20
2019-01-24T21:47:45.614Z,-4.20
2019-01-24T21:50:16.700Z,-4.20
2019-01-24T21:52:45.606Z,-4.20
2019-01-24T21:55:15.526Z,-4.20
2019-01-24T21:57:44.428Z,-4.20
2019-01-24T22:00:15.375Z,-4.20
2019-01-24T22:02:44.294Z,-4.20
2019-01-24T22:05:13.409Z,-4.20
2019-01-24T22:07:42.657Z,-4.30
2019-01-24T22:10:13.804Z,-4.30
2019-01-24T22:12:42.713Z,-4.30
2019-01-24T22:15:13.798Z,-4.30
2019-01-24T22:17:42.650Z,-4.30
2019-01-24T22:20:12.117Z,-4.30
2019-01-24T22:22:41.125Z,-4.30
2019-01-24T22:25:12.739Z,-4.40
2019-01-24T22:27:41.525Z,-4.40
2019-01-24T22:30:17.122Z,-4.40
2019-01-24T22:32:46.029Z,-4.40
2019-01-24T22:35:15.213Z,-4.40
2019-01-24T22:37:44.134Z,-4.30
2019-01-24T22:40:13.362Z,-4.30
2019-01-24T22:42:43.125Z,-4.30
2019-01-24T22:45:15.285Z,-4.30
2019-01-24T22:47:44.214Z,-4.40
2019-01-24T22:50:14.150Z,-4.40
2019-01-24T22:52:43.265Z,-4.40
2019-01-24T22:55:12.277Z,-4.50
2019-01-24T22:57:41.105Z,-4.40
2019-01-24T23:00:45.796Z,-4.50
2019-01-24T23:03:16.103Z,-4.50
2019-01-24T23:05:44.954Z,-4.50
2019-01-24T23:08:14.038Z,-4.50
2019-01-24T23:10:42.826Z,-4.50
2019-01-24T23:13:11.701Z,-4.50
2019-01-24T23:15:40.586Z,-4.60
2019-01-24T23:18:09.515Z,-4.60
2019-01-24T23:20:38.367Z,-4.60
2019-01-24T23:23:07.265Z,-4.60
2019-01-24T23:25:36.058Z,-4.60
2019-01-24T23:28:05.678Z,-4.60
2019-01-24T23:30:35.302Z,-4.60
2019-01-24T23:33:04.320Z,-4.50
2019-01-24T23:35:33.198Z,-4.50
2019-01-24T23:38:01.966Z,-4.50
2019-01-24T23:40:30.818Z,-4.50
2019-01-24T23:42:59.650Z,-4.50
2019-01-24T23:45:28.582Z,-4.50
2019-01-24T23:47:57.349Z,-4.50
2019-01-24T23:50:26.201Z,-4.50
2019-01-24T23:52:54.978Z,-4.50
2019-01-24T23:55:23.754Z,-4.50
2019-01-24T23:57:52.584Z,-4.50
